sensor_id;sensor_type;location;lat;lon;timestamp;pressure;altitude;pressure_sealevel;temperature;humidity
33185;BME280;19550;42.872;25.494;2023-07-13T00:00:10;96541.31;;;19.67;100.00
33185;BME280;19550;42.872;25.494;2023-07-13T00:02:41;96535.38;;;19.72;100.00
33185;BME280;19550;42.872;25.494;2023-07-13T00:05:08;96538.56;;;19.71;100.00
33185;BME280;19550;42.872;25.494;2023-07-13T00:07:36;96541.72;;;19.69;100.00
33185;BME280;19550;42.872;25.494;2023-07-13T00:10:05;96532.47;;;19.69;100.00
33185;BME280;19550;42.872;25.494;2023-07-13T00:12:36;96541.25;;;19.64;100.00
33185;BME280;19550;42.872;25.494;2023-07-13T00:15:06;96527.13;;;19.60;100.00
33185;BME280;19550;42.872;25.494;2023-07-13T00:17:33;96530.66;;;19.54;100.00
33185;BME280;19550;42.872;25.494;2023-07-13T00:20:00;96521.69;;;19.48;100.00
33185;BME280;19550;42.872;25.494;2023-07-13T00:22:27;96524.50;;;19.48;100.00
33185;BME280;19550;42.872;25.494;2023-07-13T00:24:54;96524.91;;;19.47;100.00
33185;BME280;19550;42.872;25.494;2023-07-13T00:27:24;96528.25;;;19.56;100.00
33185;BME280;19550;42.872;25.494;2023-07-13T00:29:51;96522.91;;;19.47;100.00
33185;BME280;19550;42.872;25.494;2023-07-13T00:32:19;96519.69;;;19.49;100.00
33185;BME280;19550;42.872;25.494;2023-07-13T00:34:46;96516.66;;;19.38;100.00
33185;BME280;19550;42.872;25.494;2023-07-13T00:37:13;96515.13;;;19.40;100.00
33185;BME280;19550;42.872;25.494;2023-07-13T00:39:40;96515.94;;;19.41;100.00
33185;BME280;19550;42.872;25.494;2023-07-13T00:42:07;96507.38;;;19.34;100.00
33185;BME280;19550;42.872;25.494;2023-07-13T00:44:35;96519.44;;;19.34;100.00
33185;BME280;19550;42.872;25.494;2023-07-13T00:47:05;96515.72;;;19.30;100.00
33185;BME280;19550;42.872;25.494;2023-07-13T00:49:33;96510.59;;;19.36;100.00
33185;BME280;19550;42.872;25.494;2023-07-13T00:52:04;96512.19;;;19.33;100.00
33185;BME280;19550;42.872;25.494;2023-07-13T00:54:36;96514.22;;;19.36;100.00
33185;BME280;19550;42.872;25.494;2023-07-13T00:57:06;96514.22;;;19.36;100.00
33185;BME280;19550;42.872;25.494;2023-07-13T00:59:36;96511.84;;;19.38;100.00
33185;BME280;19550;42.872;25.494;2023-07-13T01:02:06;96511.00;;;19.34;100.00
33185;BME280;19550;42.872;25.494;2023-07-13T01:04:33;96505.38;;;19.34;100.00
33185;BME280;19550;42.872;25.494;2023-07-13T01:07:00;96506.47;;;19.30;100.00
33185;BME280;19550;42.872;25.494;2023-07-13T01:09:27;96502.69;;;19.19;100.00
33185;BME280;19550;42.872;25.494;2023-07-13T01:11:54;96493.88;;;19.20;100.00
33185;BME280;19550;42.872;25.494;2023-07-13T01:14:21;96505.53;;;19.22;100.00
33185;BME280;19550;42.872;25.494;2023-07-13T01:16:50;96507.47;;;19.18;100.00
33185;BME280;19550;42.872;25.494;2023-07-13T01:19:27;96499.28;;;19.10;100.00
33185;BME280;19550;42.872;25.494;2023-07-13T01:22:03;96497.56;;;19.24;100.00
33185;BME280;19550;42.872;25.494;2023-07-13T01:24:34;96502.72;;;19.22;100.00
33185;BME280;19550;42.872;25.494;2023-07-13T01:27:02;96502.34;;;19.24;100.00
33185;BME280;19550;42.872;25.494;2023-07-13T01:29:30;96502.00;;;19.25;100.00
33185;BME280;19550;42.872;25.494;2023-07-13T01:31:57;96503.50;;;19.19;100.00
33185;BME280;19550;42.872;25.494;2023-07-13T01:34:25;96499.78;;;19.15;100.00
33185;BME280;19550;42.872;25.494;2023-07-13T01:36:52;96508.44;;;19.26;100.00
33185;BME280;19550;42.872;25.494;2023-07-13T01:39:22;96506.75;;;19.21;100.00
33185;BME280;19550;42.872;25.494;2023-07-13T01:41:49;96513.50;;;19.39;100.00
33185;BME280;19550;42.872;25.494;2023-07-13T01:44:16;96509.50;;;19.40;100.00
33185;BME280;19550;42.872;25.494;2023-07-13T01:46:43;96512.34;;;19.44;100.00
33185;BME280;19550;42.872;25.494;2023-07-13T01:49:10;96504.16;;;19.35;100.00
33185;BME280;19550;42.872;25.494;2023-07-13T01:51:37;96502.72;;;19.22;100.00
33185;BME280;19550;42.872;25.494;2023-07-13T01:54:04;96507.16;;;19.23;100.00
33185;BME280;19550;42.872;25.494;2023-07-13T01:56:32;96503.34;;;19.12;100.00
33185;BME280;19550;42.872;25.494;2023-07-13T01:58:59;96497.31;;;19.33;100.00
33185;BME280;19550;42.872;25.494;2023-07-13T02:01:26;96503.25;;;19.28;100.00
33185;BME280;19550;42.872;25.494;2023-07-13T02:03:53;96504.00;;;19.25;100.00
33185;BME280;19550;42.872;25.494;2023-07-13T02:06:20;96503.50;;;19.19;100.00
33185;BME280;19550;42.872;25.494;2023-07-13T02:08:47;96499.53;;;19.24;100.00
33185;BME280;19550;42.872;25.494;2023-07-13T02:11:14;96500.88;;;19.07;100.00
33185;BME280;19550;42.872;25.494;2023-07-13T02:13:42;96503.34;;;19.12;100.00
33185;BME280;19550;42.872;25.494;2023-07-13T02:16:09;96498.41;;;19.05;100.00
33185;BME280;19550;42.872;25.494;2023-07-13T02:18:36;96501.59;;;19.04;100.00
33185;BME280;19550;42.872;25.494;2023-07-13T02:21:04;96506.47;;;19.07;100.00
33185;BME280;19550;42.872;25.494;2023-07-13T02:23:31;96502.78;;;19.03;100.00
33185;BME280;19550;42.872;25.494;2023-07-13T02:25:58;96502.22;;;18.94;100.00
33185;BME280;19550;42.872;25.494;2023-07-13T02:28:25;96500.69;;;18.77;100.00
33185;BME280;19550;42.872;25.494;2023-07-13T02:30:54;96496.47;;;18.87;100.00
33185;BME280;19550;42.872;25.494;2023-07-13T02:33:21;96501.78;;;18.92;100.00
33185;BME280;19550;42.872;25.494;2023-07-13T02:35:48;96514.94;;;18.88;100.00
33185;BME280;19550;42.872;25.494;2023-07-13T02:38:14;96507.25;;;18.85;100.00
33185;BME280;19550;42.872;25.494;2023-07-13T02:40:41;96510.38;;;18.80;100.00
33185;BME280;19550;42.872;25.494;2023-07-13T02:43:08;96509.25;;;18.84;100.00
33185;BME280;19550;42.872;25.494;2023-07-13T02:45:35;96509.91;;;18.78;100.00
33185;BME280;19550;42.872;25.494;2023-07-13T02:48:04;96512.94;;;18.69;100.00
33185;BME280;19550;42.872;25.494;2023-07-13T02:50:31;96508.22;;;18.73;100.00
33185;BME280;19550;42.872;25.494;2023-07-13T02:52:58;96510.13;;;18.69;100.00
33185;BME280;19550;42.872;25.494;2023-07-13T02:55:25;96512.88;;;18.65;100.00
33185;BME280;19550;42.872;25.494;2023-07-13T02:57:54;96519.84;;;18.72;100.00
33185;BME280;19550;42.872;25.494;2023-07-13T03:00:21;96505.19;;;18.62;100.00
33185;BME280;19550;42.872;25.494;2023-07-13T03:02:48;96511.41;;;18.72;100.00
33185;BME280;19550;42.872;25.494;2023-07-13T03:05:17;96516.00;;;18.80;100.00
33185;BME280;19550;42.872;25.494;2023-07-13T03:07:44;96512.38;;;18.79;100.00
33185;BME280;19550;42.872;25.494;2023-07-13T03:10:11;96521.47;;;18.73;100.00
33185;BME280;19550;42.872;25.494;2023-07-13T03:12:38;96505.66;;;18.64;100.00
33185;BME280;19550;42.872;25.494;2023-07-13T03:15:06;96518.78;;;18.80;100.00
33185;BME280;19550;42.872;25.494;2023-07-13T03:17:33;96515.09;;;18.76;100.00
33185;BME280;19550;42.872;25.494;2023-07-13T03:19:59;96519.00;;;18.71;100.00
33185;BME280;19550;42.872;25.494;2023-07-13T03:22:28;96516.66;;;18.73;100.00
33185;BME280;19550;42.872;25.494;2023-07-13T03:24:55;96513.47;;;18.75;100.00
33185;BME280;19550;42.872;25.494;2023-07-13T03:27:22;96521.09;;;18.74;100.00
33185;BME280;19550;42.872;25.494;2023-07-13T03:29:49;96519.59;;;18.80;100.00
33185;BME280;19550;42.872;25.494;2023-07-13T03:32:16;96523.75;;;18.86;100.00
33185;BME280;19550;42.872;25.494;2023-07-13T03:34:43;96513.47;;;18.94;100.00
33185;BME280;19550;42.872;25.494;2023-07-13T03:37:10;96513.47;;;18.94;100.00
33185;BME280;19550;42.872;25.494;2023-07-13T03:39:38;96519.06;;;18.94;100.00
33185;BME280;19550;42.872;25.494;2023-07-13T03:42:06;96503.91;;;18.98;100.00
33185;BME280;19550;42.872;25.494;2023-07-13T03:44:33;96513.59;;;19.01;100.00
33185;BME280;19550;42.872;25.494;2023-07-13T03:47:00;96515.66;;;19.04;100.00
33185;BME280;19550;42.872;25.494;2023-07-13T03:49:27;96518.53;;;19.08;100.00
33185;BME280;19550;42.872;25.494;2023-07-13T03:51:54;96507.41;;;19.15;100.00
33185;BME280;19550;42.872;25.494;2023-07-13T03:54:21;96516.72;;;19.19;100.00
33185;BME280;19550;42.872;25.494;2023-07-13T03:56:50;96518.50;;;19.27;100.00
33185;BME280;19550;42.872;25.494;2023-07-13T03:59:17;96522.66;;;19.36;100.00
33185;BME280;19550;42.872;25.494;2023-07-13T04:01:44;96526.78;;;19.42;100.00
33185;BME280;19550;42.872;25.494;2023-07-13T04:04:11;96521.81;;;19.55;100.00
33185;BME280;19550;42.872;25.494;2023-07-13T04:06:38;96529.25;;;19.67;100.00
33185;BME280;19550;42.872;25.494;2023-07-13T04:09:05;96529.78;;;19.76;100.00
33185;BME280;19550;42.872;25.494;2023-07-13T04:11:32;96522.28;;;19.83;100.00
33185;BME280;19550;42.872;25.494;2023-07-13T04:14:03;96525.75;;;20.00;100.00
33185;BME280;19550;42.872;25.494;2023-07-13T04:16:30;96522.50;;;19.98;100.00
33185;BME280;19550;42.872;25.494;2023-07-13T04:18:58;96525.09;;;20.10;100.00
33185;BME280;19550;42.872;25.494;2023-07-13T04:21:26;96524.88;;;20.22;100.00
33185;BME280;19550;42.872;25.494;2023-07-13T04:23:53;96536.19;;;20.26;100.00
33185;BME280;19550;42.872;25.494;2023-07-13T04:26:20;96533.00;;;20.27;100.00
33185;BME280;19550;42.872;25.494;2023-07-13T04:28:48;96538.38;;;20.36;100.00
33185;BME280;19550;42.872;25.494;2023-07-13T04:31:17;96537.34;;;20.47;100.00
33185;BME280;19550;42.872;25.494;2023-07-13T04:33:44;96533.41;;;20.55;100.00
33185;BME280;19550;42.872;25.494;2023-07-13T04:36:11;96540.81;;;20.67;100.00
33185;BME280;19550;42.872;25.494;2023-07-13T04:38:38;96537.78;;;20.83;100.00
33185;BME280;19550;42.872;25.494;2023-07-13T04:41:06;96537.13;;;20.93;100.00
33185;BME280;19550;42.872;25.494;2023-07-13T04:43:35;96533.16;;;21.01;100.00
33185;BME280;19550;42.872;25.494;2023-07-13T04:46:06;96534.50;;;21.11;100.00
33185;BME280;19550;42.872;25.494;2023-07-13T04:48:35;96537.34;;;21.14;100.00
33185;BME280;19550;42.872;25.494;2023-07-13T04:51:03;96538.41;;;21.36;100.00
33185;BME280;19550;42.872;25.494;2023-07-13T04:53:30;96547.47;;;21.52;100.00
33185;BME280;19550;42.872;25.494;2023-07-13T04:55:57;96544.28;;;21.61;100.00
33185;BME280;19550;42.872;25.494;2023-07-13T04:58:25;96532.75;;;21.76;100.00
33185;BME280;19550;42.872;25.494;2023-07-13T05:00:52;96543.34;;;21.87;100.00
33185;BME280;19550;42.872;25.494;2023-07-13T05:03:20;96538.22;;;22.03;100.00
33185;BME280;19550;42.872;25.494;2023-07-13T05:05:56;96539.16;;;22.17;100.00
33185;BME280;19550;42.872;25.494;2023-07-13T05:08:23;96540.47;;;22.34;100.00
33185;BME280;19550;42.872;25.494;2023-07-13T05:10:51;96535.28;;;22.43;100.00
33185;BME280;19550;42.872;25.494;2023-07-13T05:13:18;96541.44;;;22.59;100.00
33185;BME280;19550;42.872;25.494;2023-07-13T05:15:47;96541.16;;;22.79;100.00
33185;BME280;19550;42.872;25.494;2023-07-13T05:18:14;96548.13;;;22.99;100.00
33185;BME280;19550;42.872;25.494;2023-07-13T05:20:41;96551.78;;;23.10;100.00
33185;BME280;19550;42.872;25.494;2023-07-13T05:23:09;96550.22;;;23.23;100.00
33185;BME280;19550;42.872;25.494;2023-07-13T05:25:36;96553.47;;;23.36;100.00
33185;BME280;19550;42.872;25.494;2023-07-13T05:28:03;96549.13;;;23.60;100.00
33185;BME280;19550;42.872;25.494;2023-07-13T05:30:30;96545.91;;;23.79;100.00
33185;BME280;19550;42.872;25.494;2023-07-13T05:32:57;96547.53;;;23.98;99.93
33185;BME280;19550;42.872;25.494;2023-07-13T05:35:24;96549.94;;;24.10;99.13
33185;BME280;19550;42.872;25.494;2023-07-13T05:37:50;96553.59;;;24.21;98.38
33185;BME280;19550;42.872;25.494;2023-07-13T05:40:19;96549.13;;;24.27;98.95
33185;BME280;19550;42.872;25.494;2023-07-13T05:42:46;96556.00;;;24.47;97.65
33185;BME280;19550;42.872;25.494;2023-07-13T08:59:33;96567.28;;;34.99;44.19
33185;BME280;19550;42.872;25.494;2023-07-13T09:02:19;96564.09;;;35.06;45.84
33185;BME280;19550;42.872;25.494;2023-07-13T09:04:50;96554.19;;;35.16;52.73
33185;BME280;19550;42.872;25.494;2023-07-13T09:07:29;96550.22;;;35.23;44.32
33185;BME280;19550;42.872;25.494;2023-07-13T09:10:08;96553.22;;;35.37;41.31
33185;BME280;19550;42.872;25.494;2023-07-13T09:12:46;96537.34;;;34.87;42.06
33185;BME280;19550;42.872;25.494;2023-07-13T09:15:25;96535.75;;;34.95;43.39
33185;BME280;19550;42.872;25.494;2023-07-13T09:17:53;96534.00;;;35.16;43.18
33185;BME280;19550;42.872;25.494;2023-07-13T09:20:25;96530.81;;;35.41;48.79
33185;BME280;19550;42.872;25.494;2023-07-13T09:22:56;96525.81;;;35.60;42.63
33185;BME280;19550;42.872;25.494;2023-07-13T09:25:30;96532.53;;;35.57;43.07
33185;BME280;19550;42.872;25.494;2023-07-13T09:28:00;96519.72;;;35.76;44.94
33185;BME280;19550;42.872;25.494;2023-07-13T09:30:39;96523.38;;;35.77;42.46
33185;BME280;19550;42.872;25.494;2023-07-13T09:33:08;96525.44;;;35.95;44.26
33185;BME280;19550;42.872;25.494;2023-07-13T09:35:36;96517.31;;;36.26;40.23
33185;BME280;19550;42.872;25.494;2023-07-13T09:38:11;96522.25;;;36.35;39.17
33185;BME280;19550;42.872;25.494;2023-07-13T09:40:56;96520.66;;;36.57;38.82
33185;BME280;19550;42.872;25.494;2023-07-13T09:43:25;96523.53;;;36.67;38.49
33185;BME280;19550;42.872;25.494;2023-07-13T09:45:55;96523.75;;;36.78;40.83
33185;BME280;19550;42.872;25.494;2023-07-13T09:48:22;96524.56;;;36.78;38.84
33185;BME280;19550;42.872;25.494;2023-07-13T09:50:54;96516.69;;;36.79;49.66
33185;BME280;19550;42.872;25.494;2023-07-13T09:53:21;96514.50;;;36.74;38.91
33185;BME280;19550;42.872;25.494;2023-07-13T09:55:49;96517.75;;;36.67;40.07
33185;BME280;19550;42.872;25.494;2023-07-13T09:58:19;96517.06;;;36.72;38.49
33185;BME280;19550;42.872;25.494;2023-07-13T10:00:57;96509.72;;;36.61;41.99
33185;BME280;19550;42.872;25.494;2023-07-13T10:03:26;96511.56;;;36.50;38.98
33185;BME280;19550;42.872;25.494;2023-07-13T10:06:03;96509.56;;;36.89;41.07
33185;BME280;19550;42.872;25.494;2023-07-13T10:08:36;96504.53;;;36.75;39.42
33185;BME280;19550;42.872;25.494;2023-07-13T10:11:10;96508.19;;;36.99;39.31
33185;BME280;19550;42.872;25.494;2023-07-13T10:13:42;96504.81;;;36.53;38.26
33185;BME280;19550;42.872;25.494;2023-07-13T10:16:11;96515.78;;;36.73;42.98
33185;BME280;19550;42.872;25.494;2023-07-13T10:18:43;96508.16;;;36.51;37.94
33185;BME280;19550;42.872;25.494;2023-07-13T10:21:15;96502.38;;;36.84;42.79
33185;BME280;19550;42.872;25.494;2023-07-13T10:23:43;96507.50;;;37.04;38.66
33185;BME280;19550;42.872;25.494;2023-07-13T10:26:26;96503.03;;;37.03;36.35
33185;BME280;19550;42.872;25.494;2023-07-13T10:28:56;96503.28;;;37.14;39.66
33185;BME280;19550;42.872;25.494;2023-07-13T10:31:25;96510.50;;;36.95;39.10
33185;BME280;19550;42.872;25.494;2023-07-13T10:33:52;96512.50;;;37.27;44.75
33185;BME280;19550;42.872;25.494;2023-07-13T10:36:30;96501.91;;;37.24;39.12
33185;BME280;19550;42.872;25.494;2023-07-13T10:39:01;96499.50;;;37.61;41.09
33185;BME280;19550;42.872;25.494;2023-07-13T10:41:33;96500.84;;;37.36;46.41
33185;BME280;19550;42.872;25.494;2023-07-13T10:44:02;96504.34;;;37.40;39.52
33185;BME280;19550;42.872;25.494;2023-07-13T10:46:32;96502.84;;;37.45;38.87
33185;BME280;19550;42.872;25.494;2023-07-13T10:49:02;96502.97;;;37.65;44.68
33185;BME280;19550;42.872;25.494;2023-07-13T10:51:31;96501.47;;;37.85;41.69
33185;BME280;19550;42.872;25.494;2023-07-13T10:54:15;96508.25;;;38.26;38.47
33185;BME280;19550;42.872;25.494;2023-07-13T10:56:43;96504.63;;;38.31;37.26
33185;BME280;19550;42.872;25.494;2023-07-13T10:59:15;96494.94;;;38.48;37.22
33185;BME280;19550;42.872;25.494;2023-07-13T11:01:51;96497.69;;;38.58;40.79
33185;BME280;19550;42.872;25.494;2023-07-13T11:04:20;96497.84;;;38.69;37.35
33185;BME280;19550;42.872;25.494;2023-07-13T11:06:50;96513.16;;;38.89;36.99
33185;BME280;19550;42.872;25.494;2023-07-13T11:09:32;96521.19;;;38.80;37.09
33185;BME280;19550;42.872;25.494;2023-07-13T11:12:00;96520.53;;;38.90;39.13
33185;BME280;19550;42.872;25.494;2023-07-13T11:14:35;96519.09;;;38.80;37.45
33185;BME280;19550;42.872;25.494;2023-07-13T11:17:33;96517.19;;;38.77;41.76
33185;BME280;19550;42.872;25.494;2023-07-13T11:22:52;96519.09;;;38.80;36.28
33185;BME280;19550;42.872;25.494;2023-07-13T11:25:28;96511.41;;;38.77;37.08
33185;BME280;19550;42.872;25.494;2023-07-13T11:28:23;96512.69;;;38.76;40.61
33185;BME280;19550;42.872;25.494;2023-07-13T11:31:03;96506.19;;;38.61;41.08
33185;BME280;19550;42.872;25.494;2023-07-13T11:33:56;96501.19;;;38.62;37.01
33185;BME280;19550;42.872;25.494;2023-07-13T11:36:30;96490.97;;;38.66;37.23
33185;BME280;19550;42.872;25.494;2023-07-13T11:39:02;96497.06;;;38.88;41.07
33185;BME280;19550;42.872;25.494;2023-07-13T11:41:34;96497.75;;;38.98;45.11
33185;BME280;19550;42.872;25.494;2023-07-13T11:44:11;96492.84;;;38.49;40.36
33185;BME280;19550;42.872;25.494;2023-07-13T11:46:38;96485.19;;;38.16;47.83
33185;BME280;19550;42.872;25.494;2023-07-13T11:49:07;96483.63;;;38.50;44.63
33185;BME280;19550;42.872;25.494;2023-07-13T11:51:35;96492.13;;;38.39;38.29
33185;BME280;19550;42.872;25.494;2023-07-13T11:54:03;96488.53;;;38.30;37.34
33185;BME280;19550;42.872;25.494;2023-07-13T11:56:32;96488.91;;;38.52;39.31
33185;BME280;19550;42.872;25.494;2023-07-13T11:59:04;96485.41;;;38.63;38.85
33185;BME280;19550;42.872;25.494;2023-07-13T12:01:32;96484.38;;;38.86;39.20
33185;BME280;19550;42.872;25.494;2023-07-13T12:04:01;96485.75;;;38.90;39.81
33185;BME280;19550;42.872;25.494;2023-07-13T12:06:32;96477.84;;;38.91;38.53
33185;BME280;19550;42.872;25.494;2023-07-13T12:09:00;96471.25;;;38.70;40.11
33185;BME280;19550;42.872;25.494;2023-07-13T12:11:28;96470.44;;;38.70;45.12
33185;BME280;19550;42.872;25.494;2023-07-13T12:13:55;96471.69;;;39.04;41.79
33185;BME280;19550;42.872;25.494;2023-07-13T12:16:28;96466.44;;;39.02;40.59
33185;BME280;19550;42.872;25.494;2023-07-13T12:18:55;96463.22;;;39.00;40.11
33185;BME280;19550;42.872;25.494;2023-07-13T12:21:31;96471.69;;;39.04;37.71
33185;BME280;19550;42.872;25.494;2023-07-13T12:23:58;96468.56;;;39.27;43.51
33185;BME280;19550;42.872;25.494;2023-07-13T12:26:28;96460.66;;;39.28;40.34
33185;BME280;19550;42.872;25.494;2023-07-13T12:28:56;96463.41;;;39.37;39.70
33185;BME280;19550;42.872;25.494;2023-07-13T12:31:34;96445.34;;;39.27;42.97
33185;BME280;19550;42.872;25.494;2023-07-13T12:34:06;96439.78;;;39.04;43.00
33185;BME280;19550;42.872;25.494;2023-07-13T12:36:36;96433.25;;;39.29;42.09
33185;BME280;19550;42.872;25.494;2023-07-13T12:39:12;96446.41;;;39.30;45.52
33185;BME280;19550;42.872;25.494;2023-07-13T12:41:39;96430.09;;;38.86;43.04
33185;BME280;19550;42.872;25.494;2023-07-13T12:44:11;96424.28;;;38.86;46.63
33185;BME280;19550;42.872;25.494;2023-07-13T12:46:38;96413.06;;;38.74;47.28
33185;BME280;19550;42.872;25.494;2023-07-13T12:49:07;96419.72;;;38.80;47.41
33185;BME280;19550;42.872;25.494;2023-07-13T12:51:36;96417.06;;;38.56;47.78
33185;BME280;19550;42.872;25.494;2023-07-13T12:54:14;96410.16;;;38.53;44.19
33185;BME280;19550;42.872;25.494;2023-07-13T12:56:42;96416.28;;;38.41;46.02
33185;BME280;19550;42.872;25.494;2023-07-13T12:59:17;96405.63;;;38.32;49.31
33185;BME280;19550;42.872;25.494;2023-07-13T13:01:46;96402.38;;;38.25;46.31
33185;BME280;19550;42.872;25.494;2023-07-13T13:04:15;96405.09;;;38.48;47.91
33185;BME280;19550;42.872;25.494;2023-07-13T13:06:48;96406.06;;;38.45;51.99
33185;BME280;19550;42.872;25.494;2023-07-13T13:09:17;96403.22;;;38.31;50.19
33185;BME280;19550;42.872;25.494;2023-07-13T13:11:45;96395.78;;;38.24;52.04
33185;BME280;19550;42.872;25.494;2023-07-13T13:14:12;96389.06;;;37.83;53.04
33185;BME280;19550;42.872;25.494;2023-07-13T13:16:46;96383.16;;;38.07;52.11
33185;BME280;19550;42.872;25.494;2023-07-13T13:19:16;96383.97;;;38.07;52.57
33185;BME280;19550;42.872;25.494;2023-07-13T13:21:45;96384.16;;;38.04;53.08
33185;BME280;19550;42.872;25.494;2023-07-13T13:24:15;96383.56;;;38.00;54.03
33185;BME280;19550;42.872;25.494;2023-07-13T13:26:43;96380.25;;;38.07;55.53
33185;BME280;19550;42.872;25.494;2023-07-13T13:29:15;96374.66;;;38.03;55.18
33185;BME280;19550;42.872;25.494;2023-07-13T13:31:43;96378.44;;;37.74;53.66
33185;BME280;19550;42.872;25.494;2023-07-13T13:34:11;96377.56;;;38.03;55.93
33185;BME280;19550;42.872;25.494;2023-07-13T13:36:39;96368.19;;;37.94;56.88
33185;BME280;19550;42.872;25.494;2023-07-13T13:39:18;96371.38;;;37.61;42.12
33185;BME280;19550;42.872;25.494;2023-07-13T13:41:46;96365.09;;;37.62;57.52
33185;BME280;19550;42.872;25.494;2023-07-13T13:44:15;96361.78;;;37.55;58.07
33185;BME280;19550;42.872;25.494;2023-07-13T13:46:43;96360.59;;;37.32;59.53
33185;BME280;19550;42.872;25.494;2023-07-13T13:49:14;96352.13;;;37.28;58.02
33185;BME280;19550;42.872;25.494;2023-07-13T13:51:42;96360.81;;;37.28;58.67
33185;BME280;19550;42.872;25.494;2023-07-13T13:54:13;96362.81;;;37.22;60.04
33185;BME280;19550;42.872;25.494;2023-07-13T13:56:42;96357.38;;;37.30;57.72
33185;BME280;19550;42.872;25.494;2023-07-13T13:59:09;96357.09;;;37.43;58.55
33185;BME280;19550;42.872;25.494;2023-07-13T14:01:37;96356.28;;;36.98;60.51
33185;BME280;19550;42.872;25.494;2023-07-13T14:04:05;96358.16;;;36.86;59.40
33185;BME280;19550;42.872;25.494;2023-07-13T14:06:33;96359.28;;;36.89;60.18
33185;BME280;19550;42.872;25.494;2023-07-13T14:09:04;96354.84;;;36.79;59.28
33185;BME280;19550;42.872;25.494;2023-07-13T14:11:33;96364.94;;;36.98;59.56
33185;BME280;19550;42.872;25.494;2023-07-13T14:14:01;96368.13;;;37.00;60.32
33185;BME280;19550;42.872;25.494;2023-07-13T14:16:31;96356.66;;;36.91;60.92
33185;BME280;19550;42.872;25.494;2023-07-13T14:19:00;96353.50;;;36.89;60.69
33185;BME280;19550;42.872;25.494;2023-07-13T14:21:28;96360.56;;;36.88;61.41
33185;BME280;19550;42.872;25.494;2023-07-13T14:23:56;96355.25;;;36.72;62.13
33185;BME280;19550;42.872;25.494;2023-07-13T14:26:25;96351.47;;;36.80;60.51
33185;BME280;19550;42.872;25.494;2023-07-13T14:28:55;96348.50;;;36.51;62.56
33185;BME280;19550;42.872;25.494;2023-07-13T14:31:25;96342.94;;;36.23;64.94
33185;BME280;19550;42.872;25.494;2023-07-13T14:33:54;96352.97;;;36.04;67.08
33185;BME280;19550;42.872;25.494;2023-07-13T14:36:27;96349.25;;;35.89;66.16
33185;BME280;19550;42.872;25.494;2023-07-13T14:38:54;96344.47;;;36.10;65.94
33185;BME280;19550;42.872;25.494;2023-07-13T14:41:21;96351.25;;;35.98;64.88
33185;BME280;19550;42.872;25.494;2023-07-13T14:43:49;96341.97;;;36.27;65.05
33185;BME280;19550;42.872;25.494;2023-07-13T14:46:28;96351.09;;;36.25;65.68
33185;BME280;19550;42.872;25.494;2023-07-13T14:49:00;96352.13;;;36.13;67.46
33185;BME280;19550;42.872;25.494;2023-07-13T14:51:29;96351.94;;;35.93;65.89
33185;BME280;19550;42.872;25.494;2023-07-13T14:53:56;96349.13;;;35.83;67.96
33185;BME280;19550;42.872;25.494;2023-07-13T14:56:24;96351.84;;;35.45;70.71
33185;BME280;19550;42.872;25.494;2023-07-13T14:58:51;96351.81;;;35.03;74.40
33185;BME280;19550;42.872;25.494;2023-07-13T15:01:20;96354.25;;;34.77;74.05
33185;BME280;19550;42.872;25.494;2023-07-13T15:03:51;96349.59;;;34.52;76.27
33185;BME280;19550;42.872;25.494;2023-07-13T15:06:19;96351.19;;;34.26;78.28
33185;BME280;19550;42.872;25.494;2023-07-13T15:08:46;96356.66;;;34.24;73.76
33185;BME280;19550;42.872;25.494;2023-07-13T15:11:16;96364.91;;;34.13;77.10
33185;BME280;19550;42.872;25.494;2023-07-13T15:13:44;96355.94;;;34.11;75.30
33185;BME280;19550;42.872;25.494;2023-07-13T15:16:16;96354.31;;;33.82;80.71
33185;BME280;19550;42.872;25.494;2023-07-13T15:18:45;96357.56;;;33.63;80.49
33185;BME280;19550;42.872;25.494;2023-07-13T15:21:21;96346.31;;;33.37;81.25
33185;BME280;19550;42.872;25.494;2023-07-13T15:23:49;96349.53;;;33.48;78.03
33185;BME280;19550;42.872;25.494;2023-07-13T15:26:17;96352.19;;;33.34;79.73
33185;BME280;19550;42.872;25.494;2023-07-13T15:28:46;96349.81;;;33.10;81.89
33185;BME280;19550;42.872;25.494;2023-07-13T15:31:22;96346.72;;;33.05;81.47
33185;BME280;19550;42.872;25.494;2023-07-13T15:33:52;96334.88;;;32.94;81.49
33185;BME280;19550;42.872;25.494;2023-07-13T15:36:39;96331.66;;;32.92;81.87
33185;BME280;19550;42.872;25.494;2023-07-13T15:39:21;96332.28;;;32.87;81.54
33185;BME280;19550;42.872;25.494;2023-07-13T15:41:48;96326.84;;;33.10;77.26
33185;BME280;19550;42.872;25.494;2023-07-13T15:44:27;96332.47;;;32.92;78.27
33185;BME280;19550;42.872;25.494;2023-07-13T15:46:56;96320.84;;;32.52;82.00
33185;BME280;19550;42.872;25.494;2023-07-13T15:49:25;96315.97;;;32.18;82.02
33185;BME280;19550;42.872;25.494;2023-07-13T15:51:54;96310.13;;;32.09;81.74
33185;BME280;19550;42.872;25.494;2023-07-13T15:54:22;96312.19;;;31.74;84.43
33185;BME280;19550;42.872;25.494;2023-07-13T15:56:53;96315.44;;;31.64;86.52
33185;BME280;19550;42.872;25.494;2023-07-13T15:59:20;96308.44;;;31.65;87.79
33185;BME280;19550;42.872;25.494;2023-07-13T16:01:47;96317.81;;;31.65;89.11
33185;BME280;19550;42.872;25.494;2023-07-13T16:04:15;96321.63;;;31.62;89.00
33185;BME280;19550;42.872;25.494;2023-07-13T16:06:43;96323.22;;;31.63;91.20
33185;BME280;19550;42.872;25.494;2023-07-13T16:09:18;96322.69;;;31.30;93.80
33185;BME280;19550;42.872;25.494;2023-07-13T16:11:48;96331.16;;;31.08;95.80
33185;BME280;19550;42.872;25.494;2023-07-13T16:14:16;96325.63;;;31.01;95.91